Time;durP1;ratioP1;P1;durP2;ratioP2;P2;SDS_P1;SDS_P2;PMS_P1;PMS_P2;Temp;Humidity;BMP_temperature;BMP_pressure;BME280_temperature;BME280_humidity;BME280_pressure;Samples;Min_cycle;Max_cycle;Signal;HPM_P1;HPM_P2
2022/01/05 00:00:05;;;;;;;154.60;79.57;;;7.30;99.90;;;;;;4975356;28;20106;-54
2022/01/05 00:02:31;;;;;;;135.32;69.13;;;7.30;99.90;;;;;;4974687;28;20046;-56
2022/01/05 00:04:57;;;;;;;153.38;76.15;;;7.20;99.90;;;;;;4975125;28;20035;-57
2022/01/05 00:07:22;;;;;;;162.35;82.65;;;7.10;99.90;;;;;;4974975;28;20030;-52
2022/01/05 00:09:48;;;;;;;136.27;67.55;;;7.10;99.90;;;;;;4974970;28;20123;-53
2022/01/05 00:12:14;;;;;;;132.68;66.93;;;7.20;99.90;;;;;;4974889;28;20508;-56
2022/01/05 00:14:40;;;;;;;129.82;66.18;;;7.20;99.90;;;;;;4975091;28;20023;-53
2022/01/05 00:17:06;;;;;;;143.73;70.93;;;7.20;99.90;;;;;;4974615;28;20085;-53
2022/01/05 00:19:34;;;;;;;155.23;75.68;;;7.20;99.90;;;;;;4974930;28;20030;-48
2022/01/05 00:22:03;;;;;;;132.43;67.93;;;7.20;99.90;;;;;;4974741;28;20462;-57
2022/01/05 00:24:29;;;;;;;154.98;77.35;;;7.10;99.90;;;;;;4974761;28;20034;-50
2022/01/05 00:26:55;;;;;;;150.60;77.75;;;7.10;99.90;;;;;;4974987;28;20038;-51
2022/01/05 00:29:20;;;;;;;175.40;86.30;;;7.10;99.90;;;;;;4974685;28;20022;-50
2022/01/05 00:31:46;;;;;;;279.23;133.07;;;7.00;99.90;;;;;;4974642;28;20165;-55
2022/01/05 00:34:12;;;;;;;239.13;114.43;;;6.90;99.90;;;;;;4974611;28;20552;-56
2022/01/05 00:36:39;;;;;;;284.38;136.35;;;6.80;99.90;;;;;;4974638;28;20031;-50
2022/01/05 00:39:05;;;;;;;318.10;144.63;;;6.70;99.90;;;;;;4974500;28;20067;-52
2022/01/05 00:41:31;;;;;;;373.50;170.02;;;6.70;99.90;;;;;;4974799;28;20031;-46
2022/01/05 00:43:57;;;;;;;287.55;133.73;;;6.70;99.90;;;;;;4974504;28;20066;-51
2022/01/05 00:46:22;;;;;;;309.45;149.05;;;6.70;99.90;;;;;;4974173;28;20034;-54
2022/01/05 00:48:48;;;;;;;230.27;113.68;;;6.80;99.90;;;;;;4974586;28;20019;-53
2022/01/05 00:51:15;;;;;;;211.38;107.85;;;6.80;99.90;;;;;;4974740;28;20031;-56
2022/01/05 00:53:42;;;;;;;212.27;104.10;;;6.90;99.90;;;;;;4974331;28;20031;-51
2022/01/05 00:56:07;;;;;;;182.35;89.50;;;6.90;99.90;;;;;;4974457;28;20023;-50
2022/01/05 00:58:33;;;;;;;189.95;92.13;;;6.90;99.90;;;;;;4974675;28;20389;-56
2022/01/05 01:00:59;;;;;;;165.27;80.65;;;6.90;99.90;;;;;;4974295;28;20039;-51
2022/01/05 01:03:28;;;;;;;172.68;83.35;;;6.80;99.90;;;;;;4974376;28;20039;-52
2022/01/05 01:05:55;;;;;;;143.15;72.75;;;6.90;99.90;;;;;;4974420;28;20046;-57
2022/01/05 01:08:21;;;;;;;131.98;65.05;;;6.90;99.90;;;;;;4974393;28;20027;-56
2022/01/05 01:10:47;;;;;;;127.57;61.67;;;6.90;99.90;;;;;;4974640;28;20027;-56
2022/01/05 01:13:17;;;;;;;111.60;56.33;;;6.90;99.90;;;;;;4974562;28;20031;-52
2022/01/05 01:15:52;;;;;;;132.35;65.30;;;6.90;99.90;;;;;;4973898;28;20030;-56
2022/01/05 01:18:19;;;;;;;104.38;53.15;;;7.00;99.90;;;;;;4974484;28;20026;-57
2022/01/05 01:20:47;;;;;;;120.75;57.75;;;6.90;99.90;;;;;;4974486;28;20019;-54
2022/01/05 01:23:13;;;;;;;126.40;66.00;;;6.90;99.90;;;;;;4977439;28;20057;-53
2022/01/05 01:25:39;;;;;;;118.97;57.88;;;6.80;99.90;;;;;;4978063;28;20023;-51
2022/01/05 01:28:06;;;;;;;105.78;52.53;;;6.80;99.90;;;;;;4977910;28;20097;-56
2022/01/05 01:30:32;;;;;;;98.85;50.65;;;6.90;99.90;;;;;;4977666;28;20105;-57
2022/01/05 01:33:01;;;;;;;92.70;46.75;;;6.90;99.90;;;;;;4977869;28;20023;-49
2022/01/05 01:35:27;;;;;;;102.18;50.33;;;7.00;99.90;;;;;;4977681;28;20069;-54
2022/01/05 01:37:54;;;;;;;90.07;45.85;;;7.00;99.90;;;;;;4977664;28;20050;-54
2022/01/05 01:40:20;;;;;;;96.50;49.50;;;7.00;99.90;;;;;;4977848;28;20051;-54
2022/01/05 01:42:46;;;;;;;120.63;58.75;;;6.90;99.90;;;;;;4977627;28;20397;-55
2022/01/05 01:45:12;;;;;;;93.18;49.15;;;7.00;99.90;;;;;;4977398;28;20084;-53
2022/01/05 01:47:38;;;;;;;108.28;55.78;;;7.00;99.90;;;;;;4977550;28;20102;-54
2022/01/05 01:50:04;;;;;;;169.23;80.15;;;7.00;99.90;;;;;;4977728;28;20034;-51
2022/01/05 01:52:30;;;;;;;121.68;62.45;;;6.90;99.90;;;;;;4976298;28;20362;-52
2022/01/05 01:54:56;;;;;;;141.98;71.22;;;6.70;99.90;;;;;;4977293;28;20034;-53
2022/01/05 01:57:23;;;;;;;153.57;77.22;;;6.70;99.90;;;;;;4977374;28;20500;-54
2022/01/05 01:59:48;;;;;;;141.25;70.47;;;6.70;99.90;;;;;;4977154;28;20389;-54
2022/01/05 02:02:17;;;;;;;164.35;77.15;;;6.70;99.90;;;;;;4977118;28;20047;-54
2022/01/05 02:04:44;;;;;;;181.25;87.13;;;6.80;99.90;;;;;;4977413;28;20029;-51
2022/01/05 02:07:11;;;;;;;229.18;111.18;;;6.90;99.90;;;;;;4977537;28;20102;-52
2022/01/05 02:09:39;;;;;;;184.82;91.15;;;6.80;99.90;;;;;;4976971;28;20050;-51
2022/01/05 02:12:06;;;;;;;162.80;81.85;;;6.80;99.90;;;;;;4977410;28;20436;-54
2022/01/05 02:14:32;;;;;;;148.52;73.55;;;6.70;99.90;;;;;;4976894;28;20497;-54
2022/01/05 02:17:02;;;;;;;172.55;87.57;;;6.70;99.90;;;;;;4976924;28;20019;-55
2022/01/05 02:19:28;;;;;;;171.85;85.28;;;6.70;99.90;;;;;;4977019;28;20035;-54
2022/01/05 02:21:54;;;;;;;125.05;66.07;;;6.70;99.90;;;;;;4976907;28;20428;-55
2022/01/05 02:24:19;;;;;;;127.15;65.07;;;6.80;99.90;;;;;;4976817;28;20023;-51
2022/01/05 02:26:45;;;;;;;113.38;58.20;;;6.70;99.90;;;;;;4976847;28;20054;-54
2022/01/05 02:29:11;;;;;;;99.82;48.33;;;6.70;99.90;;;;;;4976623;28;20050;-52
2022/01/05 02:31:37;;;;;;;88.03;46.50;;;6.80;99.90;;;;;;4976668;28;20027;-51
2022/01/05 02:34:03;;;;;;;84.90;44.83;;;6.80;99.90;;;;;;4976886;28;20074;-50
2022/01/05 02:36:29;;;;;;;82.60;42.88;;;6.80;99.90;;;;;;4976691;28;20022;-55
2022/01/05 02:38:55;;;;;;;75.90;39.25;;;6.80;99.90;;;;;;4976512;28;20189;-47
2022/01/05 02:41:22;;;;;;;69.65;36.70;;;6.80;99.90;;;;;;4976892;28;20149;-51
2022/01/05 02:43:48;;;;;;;77.65;40.08;;;6.80;99.90;;;;;;4976475;28;20026;-57
2022/01/05 02:46:20;;;;;;;122.78;62.13;;;6.90;99.90;;;;;;4976761;28;20050;-54
2022/01/05 02:48:49;;;;;;;82.13;44.00;;;6.70;99.90;;;;;;4976757;28;20041;-51
2022/01/05 02:51:15;;;;;;;82.03;43.55;;;6.60;99.90;;;;;;4976415;28;20031;-53
2022/01/05 02:53:41;;;;;;;74.25;40.38;;;6.70;99.90;;;;;;4976277;28;20031;-55
2022/01/05 02:56:07;;;;;;;70.65;39.03;;;6.70;99.90;;;;;;4976458;28;20033;-54
2022/01/05 02:58:33;;;;;;;72.93;38.33;;;6.70;99.90;;;;;;4976059;28;20027;-56
2022/01/05 03:00:59;;;;;;;70.05;34.90;;;6.70;99.90;;;;;;4976397;28;20043;-50
2022/01/05 03:03:25;;;;;;;58.70;31.98;;;6.70;99.90;;;;;;4976473;28;20035;-52
2022/01/05 03:05:51;;;;;;;56.60;30.30;;;6.80;99.90;;;;;;4976722;28;20030;-53
2022/01/05 03:08:17;;;;;;;60.78;34.55;;;6.70;99.90;;;;;;4976104;28;20480;-50
2022/01/05 03:10:42;;;;;;;68.22;37.10;;;6.70;99.90;;;;;;4976030;28;20036;-57
2022/01/05 03:13:08;;;;;;;60.83;33.63;;;6.70;99.90;;;;;;4975929;28;20493;-58
2022/01/05 03:15:35;;;;;;;61.95;32.55;;;6.60;99.90;;;;;;4975915;28;20023;-55
2022/01/05 03:18:03;;;;;;;61.83;32.45;;;6.60;99.90;;;;;;4976138;28;20374;-56
2022/01/05 03:20:30;;;;;;;50.60;27.85;;;6.60;99.90;;;;;;4976018;28;20161;-50
2022/01/05 03:22:57;;;;;;;53.88;29.63;;;6.60;99.90;;;;;;4975901;28;20027;-51
2022/01/05 03:25:23;;;;;;;55.45;31.63;;;6.60;99.90;;;;;;4975546;28;20026;-51
2022/01/05 03:27:50;;;;;;;44.85;26.20;;;6.60;99.90;;;;;;4975739;28;20120;-52
2022/01/05 03:30:19;;;;;;;53.30;30.05;;;6.60;99.90;;;;;;4975766;28;20023;-50
2022/01/05 03:33:06;;;;;;;95.20;46.42;;;6.60;99.90;;;;;;4975857;28;20027;-46
2022/01/05 03:35:32;;;;;;;69.47;34.92;;;6.60;99.90;;;;;;4975431;28;20486;-54
2022/01/05 03:37:59;;;;;;;59.67;32.22;;;6.50;99.90;;;;;;4975443;28;20034;-49
2022/01/05 03:40:26;;;;;;;60.10;32.80;;;6.60;99.90;;;;;;4975645;28;20034;-55
2022/01/05 03:42:51;;;;;;;53.80;29.33;;;6.50;99.90;;;;;;4975806;28;20364;-55
2022/01/05 03:45:17;;;;;;;45.88;26.00;;;6.50;99.90;;;;;;4975095;28;20034;-55
2022/01/05 03:47:43;;;;;;;51.60;29.52;;;6.60;99.90;;;;;;4975528;28;20031;-56
2022/01/05 03:50:09;;;;;;;41.85;26.15;;;6.50;99.90;;;;;;4975580;28;20030;-50
2022/01/05 03:52:35;;;;;;;49.22;27.70;;;6.50;99.90;;;;;;4975279;28;20073;-58
2022/01/05 03:55:06;;;;;;;61.10;33.53;;;6.50;99.90;;;;;;4974967;28;20023;-51
2022/01/05 03:57:32;;;;;;;46.60;25.92;;;6.50;99.90;;;;;;4975186;28;20034;-52
2022/01/05 03:59:59;;;;;;;50.78;29.10;;;6.40;99.90;;;;;;4975401;28;20027;-52
2022/01/05 04:02:25;;;;;;;53.92;28.83;;;6.40;99.90;;;;;;4974994;28;20101;-57
2022/01/05 04:04:51;;;;;;;58.40;31.10;;;6.40;99.90;;;;;;4975367;28;20433;-52
2022/01/05 04:07:17;;;;;;;45.42;26.48;;;6.40;99.90;;;;;;4974936;28;20027;-57
2022/01/05 04:09:42;;;;;;;53.15;27.98;;;6.40;99.90;;;;;;4974895;28;20030;-50
2022/01/05 04:12:09;;;;;;;62.40;33.83;;;6.40;99.90;;;;;;4974974;28;20022;-55
2022/01/05 04:14:35;;;;;;;49.60;27.23;;;6.40;99.90;;;;;;4975058;28;20027;-50
2022/01/05 04:17:00;;;;;;;46.38;26.35;;;6.50;99.90;;;;;;4975026;28;20053;-52
2022/01/05 04:19:26;;;;;;;56.85;31.80;;;6.60;99.90;;;;;;4974838;28;20446;-52
2022/01/05 04:21:52;;;;;;;54.13;29.85;;;6.60;99.90;;;;;;4974773;28;20019;-50
2022/01/05 04:24:18;;;;;;;47.92;26.05;;;6.60;99.90;;;;;;4974492;28;20085;-53
2022/01/05 04:26:44;;;;;;;68.07;34.03;;;6.60;99.90;;;;;;4974766;28;20034;-58
2022/01/05 04:29:10;;;;;;;63.13;31.60;;;6.60;99.90;;;;;;4974798;28;20026;-53
2022/01/05 04:31:36;;;;;;;66.18;33.15;;;6.60;99.90;;;;;;4973362;28;20385;-55
2022/01/05 04:34:02;;;;;;;61.45;32.72;;;6.60;99.90;;;;;;4974699;28;20022;-56
2022/01/05 04:36:28;;;;;;;78.80;40.00;;;6.60;99.90;;;;;;4974981;28;20492;-55
2022/01/05 04:38:54;;;;;;;69.03;35.95;;;6.60;99.90;;;;;;4974371;28;20027;-52
2022/01/05 04:41:19;;;;;;;77.47;40.67;;;6.50;99.90;;;;;;4974883;28;20022;-56
2022/01/05 04:43:45;;;;;;;104.63;50.63;;;6.60;99.90;;;;;;4974838;28;20516;-53
2022/01/05 04:46:11;;;;;;;74.55;38.47;;;6.50;99.90;;;;;;4974710;28;20459;-50
2022/01/05 04:48:37;;;;;;;67.00;34.35;;;6.50;99.90;;;;;;4974464;28;20041;-55
2022/01/05 04:51:03;;;;;;;66.47;34.85;;;6.50;99.90;;;;;;4974504;28;20025;-56
2022/01/05 04:53:29;;;;;;;61.00;33.22;;;6.70;99.90;;;;;;4974220;28;20482;-51
2022/01/05 04:55:55;;;;;;;53.15;29.75;;;6.70;99.90;;;;;;4974292;28;20038;-55
2022/01/05 04:58:20;;;;;;;56.47;32.65;;;6.60;99.90;;;;;;4978183;28;20054;-52
2022/01/05 05:00:46;;;;;;;68.78;35.45;;;6.60;99.90;;;;;;4978306;28;20058;-56
2022/01/05 05:03:12;;;;;;;71.93;40.17;;;6.60;99.90;;;;;;4978356;28;20106;-53
2022/01/05 05:05:38;;;;;;;87.93;45.03;;;6.50;99.90;;;;;;4978604;28;20038;-55
2022/01/05 05:08:04;;;;;;;84.13;45.97;;;6.50;99.90;;;;;;4978308;28;20034;-53
2022/01/05 05:10:30;;;;;;;112.50;57.10;;;6.40;99.90;;;;;;4978201;28;20477;-55
2022/01/05 05:12:56;;;;;;;129.50;65.47;;;6.40;99.90;;;;;;4978522;28;20019;-54
2022/01/05 05:15:22;;;;;;;120.32;58.25;;;6.30;99.90;;;;;;4978582;28;20050;-51
2022/01/05 05:17:48;;;;;;;147.45;74.80;;;6.30;99.90;;;;;;4978326;28;20023;-53
2022/01/05 05:20:14;;;;;;;157.05;79.85;;;6.30;99.90;;;;;;4978380;28;20385;-51
2022/01/05 05:22:40;;;;;;;215.65;105.60;;;6.20;99.90;;;;;;4978129;28;20033;-53
2022/01/05 05:25:06;;;;;;;166.60;86.03;;;6.30;99.90;;;;;;4978249;28;20042;-54
2022/01/05 05:27:32;;;;;;;199.25;105.43;;;6.20;99.90;;;;;;4977876;28;20031;-55
2022/01/05 05:29:58;;;;;;;148.77;81.03;;;6.20;99.90;;;;;;4977830;28;20027;-50
2022/01/05 05:32:23;;;;;;;133.55;70.88;;;6.30;99.90;;;;;;4977975;28;20030;-52
2022/01/05 05:34:49;;;;;;;189.40;99.80;;;6.30;99.90;;;;;;4977762;28;20022;-54
2022/01/05 05:37:16;;;;;;;172.13;88.97;;;6.40;99.90;;;;;;4978106;28;20094;-54
2022/01/05 05:39:42;;;;;;;313.50;166.82;;;6.30;99.90;;;;;;4977895;28;20089;-46
2022/01/05 05:42:08;;;;;;;276.50;136.90;;;6.30;99.90;;;;;;4977620;28;20027;-51
2022/01/05 05:44:34;;;;;;;218.05;114.00;;;6.20;99.90;;;;;;4977964;28;20033;-55
2022/01/05 05:47:01;;;;;;;389.52;213.80;;;6.30;99.90;;;;;;4977634;28;20449;-53
2022/01/05 05:49:27;;;;;;;242.90;129.13;;;6.30;99.90;;;;;;4977515;28;20027;-52
2022/01/05 05:51:52;;;;;;;275.73;140.63;;;6.30;99.90;;;;;;4977388;28;20108;-54
2022/01/05 05:54:18;;;;;;;204.85;102.82;;;6.20;99.90;;;;;;4977483;28;20131;-51
2022/01/05 05:56:44;;;;;;;161.27;81.03;;;6.40;99.90;;;;;;4977532;28;20023;-54
2022/01/05 05:59:09;;;;;;;113.68;61.92;;;6.50;99.90;;;;;;4977353;28;20058;-54
2022/01/05 06:01:35;;;;;;;92.47;50.05;;;6.50;99.90;;;;;;4977402;28;20050;-50
2022/01/05 06:04:01;;;;;;;83.47;44.85;;;6.50;99.90;;;;;;4976090;28;20045;-54
2022/01/05 06:06:27;;;;;;;76.82;41.63;;;6.50;99.90;;;;;;4975986;28;20450;-53
2022/01/05 06:08:54;;;;;;;75.20;41.33;;;6.50;99.90;;;;;;4970988;28;20113;-54
2022/01/05 06:11:20;;;;;;;71.15;38.47;;;6.50;99.90;;;;;;4957895;28;20031;-52
2022/01/05 06:13:46;;;;;;;91.75;49.38;;;6.50;99.90;;;;;;4961340;28;20058;-56
2022/01/05 06:16:12;;;;;;;82.10;42.83;;;6.50;99.90;;;;;;4967222;28;20058;-58
2022/01/05 06:18:37;;;;;;;66.93;36.67;;;6.50;99.90;;;;;;4975266;28;20385;-51
2022/01/05 06:21:03;;;;;;;71.78;38.30;;;6.50;99.90;;;;;;4975644;28;20070;-51
2022/01/05 06:23:29;;;;;;;58.70;32.13;;;6.50;99.90;;;;;;4963192;28;20035;-55
2022/01/05 06:25:55;;;;;;;54.67;30.38;;;6.50;99.90;;;;;;4967879;28;20041;-50
2022/01/05 06:28:20;;;;;;;63.45;34.17;;;6.60;99.90;;;;;;4962654;28;20118;-53
2022/01/05 06:30:46;;;;;;;49.88;27.38;;;6.70;99.90;;;;;;4962983;28;20022;-51
2022/01/05 06:33:12;;;;;;;48.70;28.20;;;6.70;99.90;;;;;;4961940;28;20106;-55
2022/01/05 06:35:38;;;;;;;57.80;31.65;;;6.70;99.90;;;;;;4971238;28;20477;-55
2022/01/05 06:38:04;;;;;;;56.75;31.20;;;6.70;99.90;;;;;;4972483;28;20445;-55
2022/01/05 06:40:30;;;;;;;97.82;50.45;;;6.80;99.90;;;;;;4963954;28;20073;-51
2022/01/05 06:42:56;;;;;;;68.90;37.25;;;6.80;99.90;;;;;;4973980;28;20035;-54
2022/01/05 06:45:22;;;;;;;67.07;36.92;;;6.70;99.90;;;;;;4974956;28;20093;-52
2022/01/05 06:47:48;;;;;;;93.28;48.88;;;6.80;99.90;;;;;;4976509;28;20473;-53
2022/01/05 06:50:13;;;;;;;73.60;41.33;;;6.70;99.90;;;;;;4976284;28;20081;-55
2022/01/05 06:52:40;;;;;;;92.47;47.17;;;6.80;99.90;;;;;;4976165;28;20027;-56
2022/01/05 06:55:07;;;;;;;93.88;50.03;;;6.80;99.90;;;;;;4976515;28;20138;-56
2022/01/05 06:57:33;;;;;;;91.68;47.25;;;6.80;99.90;;;;;;4976111;28;20035;-54
2022/01/05 06:59:59;;;;;;;84.45;44.88;;;6.80;99.90;;;;;;4975255;28;20030;-56
2022/01/05 07:02:25;;;;;;;79.43;44.00;;;6.90;99.90;;;;;;4976163;28;20121;-52
2022/01/05 07:04:50;;;;;;;99.13;52.70;;;6.90;99.90;;;;;;4976045;28;20026;-51
2022/01/05 07:07:17;;;;;;;83.75;45.88;;;6.90;99.90;;;;;;4976361;28;20081;-57
2022/01/05 07:09:43;;;;;;;89.70;45.22;;;6.90;99.90;;;;;;4976374;28;20089;-51
2022/01/05 07:12:10;;;;;;;126.60;66.00;;;6.90;99.90;;;;;;4976360;28;20110;-56
2022/01/05 07:14:36;;;;;;;123.60;66.00;;;6.90;99.90;;;;;;4975749;28;20307;-56
2022/01/05 07:17:02;;;;;;;115.20;60.53;;;6.80;99.90;;;;;;4974397;28;20382;-51
2022/01/05 07:19:27;;;;;;;112.70;57.97;;;6.80;99.90;;;;;;4973276;28;20031;-50
2022/01/05 07:21:53;;;;;;;310.00;142.98;;;6.90;99.90;;;;;;4976032;28;20102;-55
2022/01/05 07:24:19;;;;;;;241.13;114.32;;;7.00;99.90;;;;;;4975177;28;20535;-51
2022/01/05 07:26:46;;;;;;;189.77;92.97;;;7.00;99.90;;;;;;4975419;28;20027;-54
2022/01/05 07:29:14;;;;;;;170.50;81.65;;;7.10;99.90;;;;;;4975106;28;20030;-54
2022/01/05 07:31:40;;;;;;;176.50;86.60;;;7.20;99.90;;;;;;4967732;28;20046;-55
2022/01/05 07:34:06;;;;;;;145.48;73.95;;;7.20;99.90;;;;;;4975391;28;20027;-51
2022/01/05 07:36:32;;;;;;;128.15;67.07;;;7.30;99.90;;;;;;4975501;28;20019;-53
2022/01/05 07:38:59;;;;;;;126.43;63.55;;;7.30;99.90;;;;;;4974065;28;20027;-50
2022/01/05 07:41:25;;;;;;;258.00;131.18;;;7.30;99.90;;;;;;4975428;28;20384;-57
2022/01/05 07:43:51;;;;;;;198.50;105.18;;;7.20;99.90;;;;;;4973228;28;20042;-59
2022/01/05 07:46:18;;;;;;;183.25;96.53;;;7.20;99.90;;;;;;4971205;28;20046;-54
2022/01/05 07:48:44;;;;;;;146.82;79.82;;;7.40;99.90;;;;;;4970684;28;20031;-52
2022/01/05 07:51:10;;;;;;;148.95;82.65;;;7.90;99.90;;;;;;4971490;28;20033;-55
2022/01/05 07:53:36;;;;;;;139.73;74.75;;;8.30;99.90;;;;;;4973575;28;20109;-52
2022/01/05 07:56:02;;;;;;;140.45;76.97;;;8.70;99.90;;;;;;4973154;28;20041;-53
2022/01/05 07:58:27;;;;;;;122.82;66.88;;;9.30;99.90;;;;;;4974075;28;20023;-56
2022/01/05 08:00:53;;;;;;;125.00;70.28;;;10.90;99.90;;;;;;4973983;28;20123;-54
2022/01/05 08:03:19;;;;;;;123.97;70.50;;;11.40;99.20;;;;;;4973838;28;20486;-52
2022/01/05 08:05:45;;;;;;;144.80;82.50;;;12.30;97.30;;;;;;4973482;28;20034;-53
2022/01/05 08:08:12;;;;;;;163.40;94.32;;;13.00;90.70;;;;;;4975237;28;20416;-53
2022/01/05 08:10:38;;;;;;;211.48;122.70;;;13.50;89.40;;;;;;4974912;28;20023;-53
2022/01/05 08:13:04;;;;;;;363.00;196.02;;;14.60;77.00;;;;;;4975298;28;20054;-49
2022/01/05 08:15:29;;;;;;;362.63;206.40;;;15.30;72.10;;;;;;4974827;28;20058;-55
2022/01/05 08:17:55;;;;;;;380.73;219.68;;;14.80;71.00;;;;;;4974941;28;20027;-56
2022/01/05 08:20:21;;;;;;;297.08;178.07;;;15.10;71.60;;;;;;4973959;28;20029;-55
2022/01/05 08:22:47;;;;;;;276.00;156.80;;;15.50;72.60;;;;;;4973712;28;20019;-53
2022/01/05 08:25:16;;;;;;;225.40;133.98;;;16.20;71.50;;;;;;4973177;28;20026;-49
2022/01/05 08:27:48;;;;;;;189.70;108.88;;;16.30;69.20;;;;;;4973745;28;20061;-52
2022/01/05 08:30:20;;;;;;;162.35;95.88;;;15.60;67.80;;;;;;4974012;28;20394;-56
2022/01/05 08:32:47;;;;;;;162.77;96.05;;;14.70;72.70;;;;;;4974091;28;20483;-55
2022/01/05 08:35:14;;;;;;;148.63;89.40;;;13.90;78.30;;;;;;4973509;28;20015;-54
2022/01/05 08:37:46;;;;;;;134.85;81.10;;;13.30;86.90;;;;;;4972681;28;20034;-56
2022/01/05 08:40:14;;;;;;;181.27;103.65;;;13.20;91.10;;;;;;4972249;28;20023;-57
2022/01/05 08:42:40;;;;;;;183.00;107.93;;;13.00;92.00;;;;;;4973088;28;20026;-58
2022/01/05 08:45:07;;;;;;;173.18;102.60;;;12.50;94.70;;;;;;4974381;28;20106;-55
2022/01/05 08:47:33;;;;;;;160.95;90.30;;;12.30;98.00;;;;;;4970630;28;20019;-59
2022/01/05 08:49:59;;;;;;;158.30;93.15;;;12.20;99.70;;;;;;4970407;28;20500;-50
2022/01/05 08:52:25;;;;;;;147.77;88.93;;;12.00;99.90;;;;;;4970942;28;20027;-56
2022/01/05 08:54:51;;;;;;;133.27;82.45;;;11.90;99.90;;;;;;4972126;28;20027;-55
2022/01/05 08:57:17;;;;;;;121.68;74.28;;;12.00;99.90;;;;;;4972300;28;20031;-59
2022/01/05 08:59:44;;;;;;;121.75;74.00;;;12.30;99.90;;;;;;4971584;28;20385;-56
2022/01/05 09:02:13;;;;;;;109.63;69.13;;;12.50;99.90;;;;;;4972550;28;20490;-56
2022/01/05 09:04:40;;;;;;;107.25;65.43;;;12.60;99.90;;;;;;4974072;28;20038;-57
2022/01/05 09:07:06;;;;;;;114.72;69.13;;;13.00;99.00;;;;;;4972995;28;20023;-57
2022/01/05 09:09:32;;;;;;;103.93;64.47;;;13.30;95.90;;;;;;4974038;28;20027;-61
2022/01/05 09:11:58;;;;;;;109.90;68.85;;;13.30;96.90;;;;;;4973683;28;20038;-57
2022/01/05 09:14:23;;;;;;;121.45;78.93;;;13.60;98.10;;;;;;4969700;28;20025;-57
2022/01/05 09:16:49;;;;;;;130.05;79.68;;;13.80;99.40;;;;;;4970462;28;20043;-55
2022/01/05 09:19:15;;;;;;;123.75;78.97;;;14.10;96.60;;;;;;4965227;28;20031;-58
2022/01/05 09:21:41;;;;;;;157.45;92.93;;;14.50;99.50;;;;;;4971985;28;20069;-55
2022/01/05 09:24:07;;;;;;;126.53;77.07;;;14.70;92.40;;;;;;4965058;28;20027;-53
2022/01/05 09:26:33;;;;;;;104.45;67.30;;;15.00;89.60;;;;;;4958569;28;20027;-57
2022/01/05 09:28:58;;;;;;;103.15;63.97;;;15.60;87.60;;;;;;4958621;28;20062;-56
2022/01/05 09:31:24;;;;;;;69.80;44.58;;;16.30;86.40;;;;;;4965074;28;20446;-55
2022/01/05 09:33:50;;;;;;;58.92;38.35;;;16.80;72.50;;;;;;4970957;28;20109;-56
2022/01/05 09:36:20;;;;;;;51.72;31.17;;;17.10;70.10;;;;;;4970653;28;20393;-53
2022/01/05 09:44:11;;;;;;;20.40;13.43;;;17.50;66.40;;;;;;4962233;28;20401;-52
2022/01/05 09:46:55;;;;;;;15.82;11.05;;;17.60;62.50;;;;;;4965559;28;20485;-53
2022/01/05 09:49:31;;;;;;;20.02;12.10;;;17.80;61.70;;;;;;4975880;28;20050;-51
2022/01/05 09:52:03;;;;;;;18.98;12.02;;;18.20;59.30;;;;;;4968077;28;20024;-54
2022/01/05 09:54:29;;;;;;;18.15;10.63;;;18.60;58.90;;;;;;4963060;28;20121;-54
2022/01/05 09:56:57;;;;;;;13.98;9.27;;;19.10;57.50;;;;;;4970483;28;20038;-53
2022/01/05 09:59:23;;;;;;;15.95;9.90;;;19.20;55.90;;;;;;4968749;28;20054;-55
2022/01/05 10:01:49;;;;;;;12.27;7.60;;;19.10;55.20;;;;;;4974119;28;20206;-48
2022/01/05 10:04:16;;;;;;;11.70;7.70;;;18.80;55.00;;;;;;4960104;28;20031;-49
2022/01/05 10:06:42;;;;;;;12.05;7.85;;;18.70;55.70;;;;;;4970980;28;20109;-50
2022/01/05 10:09:08;;;;;;;11.63;6.97;;;18.80;55.50;;;;;;4971671;28;20019;-51
2022/01/05 10:11:35;;;;;;;13.50;7.43;;;19.30;55.50;;;;;;4972552;28;20031;-53
2022/01/05 10:14:01;;;;;;;13.32;7.88;;;19.80;57.00;;;;;;4959920;28;20057;-46
2022/01/05 10:16:27;;;;;;;15.38;8.52;;;20.30;52.50;;;;;;4972006;28;20382;-50
2022/01/05 10:18:53;;;;;;;14.35;7.65;;;20.70;52.10;;;;;;4973813;28;20033;-50
2022/01/05 10:21:19;;;;;;;17.38;9.52;;;21.00;51.90;;;;;;4974653;28;20488;-50
2022/01/05 10:23:47;;;;;;;13.75;7.45;;;21.30;51.50;;;;;;4972901;28;20026;-48
2022/01/05 10:26:29;;;;;;;10.93;6.63;;;21.40;48.90;;;;;;4973890;28;20026;-51
2022/01/05 10:28:59;;;;;;;26.77;11.52;;;21.60;48.20;;;;;;4973948;28;20034;-49
2022/01/05 10:31:28;;;;;;;9.13;5.47;;;21.50;47.20;;;;;;4972863;28;20077;-48
2022/01/05 10:33:54;;;;;;;7.65;5.00;;;21.60;46.40;;;;;;4973806;28;20025;-51
2022/01/05 10:36:20;;;;;;;16.05;11.00;;;21.50;45.80;;;;;;4973349;28;20039;-52
2022/01/05 10:38:57;;;;;;;13.60;8.32;;;21.40;46.70;;;;;;4975409;28;20042;-52
2022/01/05 10:41:27;;;;;;;22.55;13.55;;;21.00;46.80;;;;;;4974743;28;20033;-49
2022/01/05 10:44:08;;;;;;;34.28;17.20;;;20.70;47.00;;;;;;4972887;28;20486;-49
2022/01/05 10:46:41;;;;;;;34.60;20.60;;;20.50;47.70;;;;;;4973884;28;20501;-49
2022/01/05 10:49:07;;;;;;;24.90;14.95;;;20.00;48.30;;;;;;4973418;28;20022;-49
2022/01/05 10:51:34;;;;;;;28.33;16.25;;;19.80;47.70;;;;;;4974372;28;20042;-53
2022/01/05 10:54:21;;;;;;;21.20;12.55;;;19.40;49.00;;;;;;4974699;28;20378;-50
2022/01/05 10:56:47;;;;;;;27.60;17.58;;;19.20;49.10;;;;;;4976510;28;20039;-54
2022/01/05 10:59:14;;;;;;;30.95;18.30;;;19.20;50.40;;;;;;4976014;28;20143;-53
2022/01/05 11:01:41;;;;;;;31.25;17.33;;;19.10;50.10;;;;;;4976374;28;20043;-56
2022/01/05 11:04:16;;;;;;;67.97;33.15;;;19.20;50.80;;;;;;4975330;28;20433;-52
2022/01/05 11:06:56;;;;;;;55.88;32.08;;;19.20;50.60;;;;;;4974938;28;20082;-52
2022/01/05 11:09:22;;;;;;;66.38;40.97;;;19.20;50.30;;;;;;4973433;28;20113;-53
2022/01/05 11:11:49;;;;;;;47.58;30.60;;;19.20;50.40;;;;;;4971738;28;20705;-49
2022/01/05 11:14:29;;;;;;;19.77;13.27;;;19.10;50.70;;;;;;4968882;28;20129;-56
2022/01/05 11:16:57;;;;;;;35.45;26.48;;;19.00;49.90;;;;;;4974018;28;20425;-49
2022/01/05 11:19:29;;;;;;;42.47;30.75;;;18.90;51.00;;;;;;4975212;28;20477;-48
2022/01/05 11:22:05;;;;;;;43.22;31.98;;;19.00;51.20;;;;;;4974900;28;20027;-52
2022/01/05 11:24:44;;;;;;;69.45;41.85;;;19.00;51.30;;;;;;4975362;28;20023;-50
2022/01/05 11:27:17;;;;;;;88.60;50.65;;;18.90;53.30;;;;;;4975688;28;20543;-55
2022/01/05 11:29:44;;;;;;;108.05;63.05;;;18.80;55.50;;;;;;4974585;28;20386;-50
2022/01/05 11:32:15;;;;;;;87.07;56.65;;;18.60;55.90;;;;;;4974330;28;20027;-53
2022/01/05 11:34:42;;;;;;;73.82;47.38;;;18.50;55.50;;;;;;4974817;28;20050;-48
2022/01/05 11:37:09;;;;;;;66.57;44.78;;;18.50;54.10;;;;;;4974168;28;20038;-51
2022/01/05 11:39:43;;;;;;;62.10;41.45;;;18.60;53.10;;;;;;4968637;28;20045;-54
2022/01/05 11:42:10;;;;;;;;;;;18.60;53.50;;;;;;4955351;28;20023;-51
2022/01/05 11:44:46;;;;;;;50.92;33.35;;;18.60;52.10;;;;;;4954697;29;19907;-51
2022/01/05 11:47:23;;;;;;;42.47;28.52;;;18.60;54.10;;;;;;4955181;28;20031;-53
2022/01/05 11:49:54;;;;;;;48.53;33.17;;;18.60;53.70;;;;;;4969554;28;20367;-50
2022/01/05 11:52:59;;;;;;;38.10;25.40;;;18.60;56.20;;;;;;4973159;28;20461;-53
2022/01/05 11:55:27;;;;;;;34.58;22.05;;;18.70;53.50;;;;;;4974605;28;20094;-54
2022/01/05 11:58:15;;;;;;;39.97;22.98;;;18.80;52.70;;;;;;4975082;28;20030;-54
2022/01/05 12:00:42;;;;;;;77.70;50.75;;;18.90;52.60;;;;;;4974779;28;20038;-54
2022/01/05 12:03:08;;;;;;;71.72;46.05;;;18.80;55.40;;;;;;4974156;28;20501;-50
2022/01/05 12:06:08;;;;;;;63.38;46.63;;;18.70;55.90;;;;;;4974426;28;20039;-54
2022/01/05 12:08:46;;;;;;;53.28;35.38;;;19.00;56.50;;;;;;4973670;28;20027;-52
2022/01/05 12:11:33;;;;;;;37.80;24.45;;;19.50;51.80;;;;;;4975037;28;20473;-49
2022/01/05 12:14:00;;;;;;;35.58;21.48;;;20.10;52.40;;;;;;4974975;28;20030;-52
2022/01/05 12:16:26;;;;;;;23.42;13.38;;;20.40;49.30;;;;;;4973539;28;20089;-50
2022/01/05 12:19:14;;;;;;;9.80;5.72;;;20.80;46.30;;;;;;4974971;28;20027;-54
2022/01/05 12:21:48;;;;;;;14.45;8.40;;;21.20;45.10;;;;;;4967630;28;20037;-53
2022/01/05 12:24:20;;;;;;;12.48;7.40;;;21.40;45.50;;;;;;4959880;28;20031;-52
2022/01/05 12:27:21;;;;;;;15.77;7.18;;;21.70;47.10;;;;;;4961032;28;20684;-53
2022/01/05 12:29:48;;;;;;;14.38;8.77;;;22.00;45.30;;;;;;4962123;28;20077;-56
2022/01/05 12:32:37;;;;;;;22.67;11.05;;;22.30;44.60;;;;;;4965832;28;20026;-54
2022/01/05 12:35:15;;;;;;;16.15;8.55;;;22.40;44.00;;;;;;4972218;28;20031;-51